createdAt,value
2022-11-20T00:07:10.814Z,0
2022-11-20T00:16:46.608Z,0
2022-11-20T00:26:22.289Z,0
2022-11-20T00:35:58.362Z,0
2022-11-20T00:45:34.321Z,0
2022-11-20T00:55:09.661Z,0
2022-11-20T01:04:45.917Z,0
2022-11-20T01:14:22.009Z,0
2022-11-20T01:23:58.612Z,0
2022-11-20T01:33:35.134Z,0
2022-11-20T01:43:11.341Z,0
2022-11-20T01:52:47.769Z,0
2022-11-20T02:02:24.135Z,0
2022-11-20T02:12:00.055Z,0
2022-11-20T02:21:36.400Z,0
2022-11-20T02:40:52.745Z,0
2022-11-20T02:50:24.825Z,0
2022-11-20T03:00:00.150Z,0
2022-11-20T03:09:35.821Z,0
2022-11-20T03:19:11.608Z,0
2022-11-20T03:28:47.624Z,0
2022-11-20T03:38:23.507Z,0
2022-11-20T03:47:58.994Z,0
2022-11-20T03:57:34.804Z,0
2022-11-20T04:07:10.659Z,0
2022-11-20T04:26:21.930Z,0
2022-11-20T04:35:57.583Z,0
2022-11-20T04:45:33.407Z,0
2022-11-20T04:55:08.001Z,0
2022-11-20T05:04:43.804Z,0
2022-11-20T05:14:19.573Z,0
2022-11-20T05:23:55.318Z,0
2022-11-20T05:33:31.273Z,0
2022-11-20T05:43:07.038Z,0
2022-11-20T05:52:43.148Z,0
2022-11-20T06:02:18.655Z,0.83
2022-11-20T06:11:54.382Z,2.5
2022-11-20T06:21:30.400Z,10.83
2022-11-20T06:31:06.420Z,40
2022-11-20T06:40:42.090Z,93.33
2022-11-20T06:50:18.408Z,173.33
2022-11-20T06:59:54.103Z,265
2022-11-20T07:09:30.344Z,369.17
2022-11-20T07:19:06.249Z,520
2022-11-20T07:28:43.143Z,582.5
2022-11-20T07:38:20.699Z,696.67
2022-11-20T07:47:58.545Z,901.67
2022-11-20T07:57:36.003Z,1525
2022-11-20T08:07:13.762Z,1236.67
2022-11-20T08:16:50.696Z,1899.17
2022-11-20T08:26:30.092Z,1810
2022-11-20T08:36:06.327Z,1851.67
2022-11-20T08:45:43.652Z,2224.17
2022-11-20T09:04:58.026Z,2553.33
2022-11-20T09:14:34.366Z,1692.5
2022-11-20T09:24:11.280Z,1560.83
2022-11-20T09:33:47.490Z,1317.5
2022-11-20T09:43:24.201Z,1572.5
2022-11-20T09:53:01.242Z,2001.67
2022-11-20T10:12:15.883Z,2686.67
2022-11-20T10:21:53.599Z,2442.5
2022-11-20T10:31:29.659Z,1873.33
2022-11-20T10:41:05.002Z,1625.83
2022-11-20T10:50:41.048Z,1306.67
2022-11-20T11:00:17.612Z,1489.17
2022-11-20T11:09:54.255Z,1466.67
2022-11-20T11:19:30.869Z,1465.83
2022-11-20T11:29:06.559Z,1027.5
2022-11-20T11:38:42.994Z,988.33
2022-11-20T11:48:19.863Z,1296.67
2022-11-20T12:07:49.559Z,1373.33
2022-11-20T12:17:11.330Z,1526.67
2022-11-20T12:26:49.114Z,1774.17
2022-11-20T12:36:26.182Z,1497.5
2022-11-20T12:46:03.048Z,1381.67
2022-11-20T12:55:38.793Z,866.67
2022-11-20T13:05:15.302Z,763.33
2022-11-20T13:14:52.093Z,979.17
2022-11-20T13:24:29.137Z,1158.33
2022-11-20T13:34:05.840Z,910.83
2022-11-20T13:43:42.889Z,889.17
2022-11-20T13:53:19.412Z,925.83
2022-11-20T14:02:55.963Z,758.33
2022-11-20T14:12:33.103Z,1305
2022-11-20T14:22:10.326Z,857.5
2022-11-20T14:41:24.183Z,426.67
2022-11-20T14:50:59.673Z,441.67
2022-11-20T15:00:35.759Z,325.83
2022-11-20T15:10:11.480Z,199.17
2022-11-20T15:19:46.815Z,128.33
2022-11-20T15:38:57.729Z,18.33
2022-11-20T15:48:33.314Z,3.33
2022-11-20T15:58:08.602Z,0.83
2022-11-20T16:17:20.779Z,0
2022-11-20T16:26:57.092Z,0
2022-11-20T16:36:33.167Z,0
2022-11-20T16:55:45.386Z,0
2022-11-20T17:05:21.760Z,0
2022-11-20T17:14:57.253Z,0
2022-11-20T17:43:47.800Z,0
2022-11-20T17:53:24.603Z,0
2022-11-20T18:03:01.109Z,0
2022-11-20T18:12:38.848Z,0
2022-11-20T18:22:13.993Z,0
2022-11-20T18:41:28.447Z,0
2022-11-20T18:51:03.739Z,0
2022-11-20T19:00:40.533Z,0
2022-11-20T19:10:17.180Z,0
2022-11-20T19:19:53.624Z,0
2022-11-20T19:29:31.297Z,0
2022-11-20T19:39:06.946Z,0
2022-11-20T19:48:43.447Z,0
2022-11-20T20:07:55.984Z,0
2022-11-20T20:27:08.963Z,0
2022-11-20T20:46:21.027Z,0
2022-11-20T20:55:57.309Z,0
2022-11-20T21:05:33.764Z,0
2022-11-20T21:15:09.993Z,0
2022-11-20T21:24:45.455Z,0
2022-11-20T21:34:22.279Z,0
2022-11-20T21:53:35.019Z,0
2022-11-20T22:12:48.405Z,0
2022-11-20T22:22:25.073Z,0
2022-11-20T22:32:02.060Z,0
2022-11-20T22:41:38.362Z,0
2022-11-20T22:51:14.929Z,0
2022-11-20T23:00:51.712Z,0
2022-11-20T23:10:28.304Z,0
2022-11-20T23:20:04.930Z,0
2022-11-20T23:29:41.498Z,0
2022-11-20T23:39:18.509Z,0
2022-11-20T23:48:55.203Z,0
2022-11-20T23:58:32.033Z,0
